createdAt,value
2022-09-21T00:00:36.457Z,7.56
2022-09-21T00:01:37.892Z,7.56
2022-09-21T00:02:39.270Z,7.55
2022-09-21T00:03:41.020Z,7.54
2022-09-21T00:04:42.377Z,7.52
2022-09-21T00:05:43.765Z,7.53
2022-09-21T00:06:45.090Z,7.53
2022-09-21T00:07:46.387Z,7.54
2022-09-21T00:08:48.408Z,7.50
2022-09-21T00:09:49.697Z,7.50
2022-09-21T00:10:51.048Z,7.49
2022-09-21T00:11:56.298Z,7.47
2022-09-21T00:12:59.878Z,7.47
2022-09-21T00:14:02.803Z,7.47
2022-09-21T00:15:08.005Z,7.45
2022-09-21T00:16:09.770Z,7.43
2022-09-21T00:17:11.132Z,7.39
2022-09-21T00:18:12.503Z,7.35
2022-09-21T00:19:13.833Z,7.35
2022-09-21T00:20:15.178Z,7.33
2022-09-21T00:21:17.064Z,7.34
2022-09-21T00:22:18.409Z,7.32
2022-09-21T00:23:19.987Z,7.30
2022-09-21T00:24:21.367Z,7.28
2022-09-21T00:25:22.746Z,7.26
2022-09-21T00:26:25.280Z,7.25
2022-09-21T00:27:26.587Z,7.24
2022-09-21T00:28:27.874Z,7.22
2022-09-21T00:29:29.216Z,7.22
2022-09-21T00:30:30.585Z,7.19
2022-09-21T00:31:32.565Z,7.20
2022-09-21T00:32:35.639Z,7.21
2022-09-21T00:33:36.933Z,7.19
2022-09-21T00:34:38.253Z,7.16
2022-09-21T00:35:39.570Z,7.19
2022-09-21T00:36:40.900Z,7.18
2022-09-21T00:37:42.245Z,7.13
2022-09-21T00:38:44.053Z,7.12
2022-09-21T00:39:45.596Z,7.10
2022-09-21T00:40:46.912Z,7.09
2022-09-21T00:41:48.250Z,7.07
2022-09-21T00:42:49.559Z,7.07
2022-09-21T00:44:09.917Z,7.08
2022-09-21T00:45:12.455Z,7.08
2022-09-21T00:46:31.645Z,7.10
2022-09-21T00:47:35.577Z,7.08
2022-09-21T00:48:36.980Z,7.06
2022-09-21T00:49:38.916Z,7.04
2022-09-21T00:50:43.661Z,7.03
2022-09-21T00:51:45.544Z,7.02
2022-09-21T00:52:49.376Z,7.02
2022-09-21T00:53:54.390Z,7.00
2022-09-21T00:54:57.490Z,6.99
2022-09-21T00:55:59.229Z,6.97
2022-09-21T00:57:01.416Z,6.97
2022-09-21T00:58:05.172Z,6.96
2022-09-21T00:59:07.349Z,6.97
2022-09-21T01:00:09.645Z,6.95
2022-09-21T01:01:12.007Z,6.94
2022-09-21T01:02:13.682Z,6.92
2022-09-21T01:03:15.173Z,6.93
2022-09-21T01:04:16.635Z,6.92
2022-09-21T01:05:18.085Z,6.92
2022-09-21T01:06:20.078Z,6.92
2022-09-21T01:07:23.536Z,6.94
2022-09-21T01:08:25.947Z,6.96
2022-09-21T01:09:28.026Z,6.95
2022-09-21T01:10:47.614Z,6.98
2022-09-21T01:12:03.851Z,7.01
2022-09-21T01:13:11.196Z,7.01
2022-09-21T01:14:23.195Z,6.99
2022-09-21T01:15:57.111Z,7.04
2022-09-21T01:16:58.436Z,7.02
2022-09-21T01:18:12.447Z,7.01
2022-09-21T01:19:16.429Z,7.00
2022-09-21T01:20:23.940Z,6.96
2022-09-21T01:21:26.578Z,6.93
2022-09-21T01:22:27.881Z,6.91
2022-09-21T01:23:31.885Z,6.91
2022-09-21T01:24:36.165Z,6.93
2022-09-21T01:25:52.333Z,6.91
2022-09-21T01:26:59.620Z,6.88
2022-09-21T01:28:08.373Z,6.84
2022-09-21T01:29:21.577Z,6.82
2022-09-21T01:30:23.487Z,6.78
2022-09-21T01:31:28.316Z,6.79
2022-09-21T01:32:32.777Z,6.76
2022-09-21T01:33:39.794Z,6.75
2022-09-21T01:34:47.082Z,6.71
2022-09-21T01:35:49.947Z,6.70
2022-09-21T01:36:53.273Z,6.66
2022-09-21T01:37:57.793Z,6.66
2022-09-21T01:39:03.254Z,6.63
2022-09-21T01:40:08.124Z,6.61
2022-09-21T01:41:10.940Z,6.61
2022-09-21T01:42:13.957Z,6.60
2022-09-21T01:43:18.559Z,6.56
2022-09-21T01:44:21.779Z,6.58
2022-09-21T01:45:34.811Z,6.55
2022-09-21T01:46:37.701Z,6.51
2022-09-21T01:47:40.630Z,6.52
2022-09-21T01:48:43.960Z,6.54
2022-09-21T01:49:47.417Z,6.54
2022-09-21T01:50:53.083Z,6.52
2022-09-21T01:52:07.738Z,6.52
2022-09-21T01:53:13.694Z,6.51
2022-09-21T01:54:18.424Z,6.51
2022-09-21T01:55:27.728Z,6.53
2022-09-21T01:56:35.901Z,6.50
2022-09-21T01:57:40.485Z,6.47
2022-09-21T01:58:57.056Z,6.46
2022-09-21T01:59:59.928Z,6.47
2022-09-21T02:01:02.683Z,6.47
2022-09-21T02:02:11.908Z,6.45
2022-09-21T02:03:21.205Z,6.46
2022-09-21T02:04:22.697Z,6.45
2022-09-21T02:05:25.492Z,6.51
2022-09-21T02:06:28.432Z,6.50
2022-09-21T02:07:30.528Z,6.53
2022-09-21T02:08:32.101Z,6.55
2022-09-21T02:09:35.229Z,6.59
2022-09-21T02:10:39.275Z,6.66
2022-09-21T02:11:40.611Z,6.68
2022-09-21T02:12:41.949Z,6.70
2022-09-21T02:13:45.224Z,6.72
2022-09-21T02:14:47.037Z,6.73
2022-09-21T02:15:53.655Z,6.74
2022-09-21T02:16:54.980Z,6.75
2022-09-21T02:18:02.944Z,6.77
2022-09-21T02:19:04.231Z,6.77
2022-09-21T02:20:27.912Z,6.77
2022-09-21T02:21:48.151Z,6.78
2022-09-21T02:23:07.969Z,6.76
2022-09-21T02:24:18.064Z,6.76
2022-09-21T02:25:28.850Z,6.75
2022-09-21T02:26:33.688Z,6.75
2022-09-21T02:27:41.177Z,6.73
2022-09-21T02:28:47.121Z,6.71
2022-09-21T02:29:57.527Z,6.71
2022-09-21T02:31:07.079Z,6.71
2022-09-21T02:32:23.725Z,6.68
2022-09-21T02:33:34.430Z,6.67
2022-09-21T02:34:49.307Z,6.66
2022-09-21T02:35:53.117Z,6.67
2022-09-21T02:37:01.249Z,6.65
2022-09-21T02:38:08.725Z,6.62
2022-09-21T02:39:12.152Z,6.62
2022-09-21T02:40:22.115Z,6.59
2022-09-21T02:41:28.201Z,6.58
2022-09-21T02:42:31.702Z,6.57
2022-09-21T02:43:52.661Z,6.57
2022-09-21T02:44:57.976Z,6.54
2022-09-21T02:46:09.644Z,6.57
2022-09-21T02:47:18.310Z,6.59
2022-09-21T02:48:24.452Z,6.59
2022-09-21T02:49:29.457Z,6.61
2022-09-21T02:50:48.882Z,6.62
2022-09-21T02:51:51.814Z,6.63
2022-09-21T02:52:54.269Z,6.65
2022-09-21T02:53:56.663Z,6.65
2022-09-21T02:54:58.510Z,6.64
2022-09-21T02:56:01.108Z,6.67
2022-09-21T02:57:02.992Z,6.68
2022-09-21T02:58:06.523Z,6.68
2022-09-21T02:59:07.964Z,6.67
2022-09-21T03:00:09.823Z,6.66
2022-09-21T03:01:12.252Z,6.62
2022-09-21T03:02:13.875Z,6.60
2022-09-21T03:03:16.915Z,6.62
2022-09-21T03:04:19.245Z,6.61
2022-09-21T03:05:20.610Z,6.60
2022-09-21T03:06:21.943Z,6.63
2022-09-21T03:07:23.314Z,6.61
2022-09-21T03:08:24.616Z,6.62
2022-09-21T03:09:25.938Z,6.60
2022-09-21T03:10:27.263Z,6.61
2022-09-21T03:11:28.589Z,6.60
2022-09-21T03:12:29.908Z,6.57
2022-09-21T03:13:31.630Z,6.54
2022-09-21T03:14:32.972Z,6.51
2022-09-21T03:15:35.127Z,6.50
2022-09-21T03:16:36.691Z,6.48
2022-09-21T03:17:38.004Z,6.43
2022-09-21T03:18:39.334Z,6.44
2022-09-21T03:19:40.635Z,6.43
2022-09-21T03:20:44.050Z,6.40
2022-09-21T03:21:45.388Z,6.37
2022-09-21T03:22:46.757Z,6.32
2022-09-21T03:23:48.157Z,6.30
2022-09-21T03:24:49.577Z,6.28
2022-09-21T03:25:50.994Z,6.29
2022-09-21T03:26:52.322Z,6.30
2022-09-21T03:27:53.931Z,6.32
2022-09-21T03:28:55.348Z,6.32
2022-09-21T03:30:01.312Z,6.29
2022-09-21T03:31:03.441Z,6.26
2022-09-21T03:32:04.861Z,6.23
2022-09-21T03:33:06.256Z,6.20
2022-09-21T03:34:07.723Z,6.16
2022-09-21T03:35:09.258Z,6.16
2022-09-21T03:36:10.574Z,6.10
2022-09-21T03:37:11.915Z,6.09
2022-09-21T03:38:13.256Z,6.07
2022-09-21T03:39:14.625Z,6.06
2022-09-21T03:40:16.606Z,6.03
2022-09-21T03:41:17.955Z,6.01
2022-09-21T03:42:19.307Z,6.04
2022-09-21T03:43:20.626Z,6.06
2022-09-21T03:44:22.185Z,6.03
2022-09-21T03:45:23.530Z,6.04
2022-09-21T03:46:24.888Z,5.99
2022-09-21T03:47:26.224Z,5.93
2022-09-21T03:48:27.531Z,5.92
2022-09-21T03:49:28.853Z,5.91
2022-09-21T03:50:30.208Z,5.93
2022-09-21T03:51:31.498Z,5.91
2022-09-21T03:52:33.284Z,5.90
2022-09-21T03:53:34.581Z,5.90
2022-09-21T03:54:35.889Z,5.88
2022-09-21T03:55:37.339Z,5.90
2022-09-21T03:56:38.677Z,5.87
2022-09-21T03:57:40.023Z,5.84
2022-09-21T03:58:41.318Z,5.84
2022-09-21T03:59:42.630Z,5.81
2022-09-21T04:00:44.062Z,5.80
2022-09-21T04:01:45.461Z,5.81
2022-09-21T04:02:46.820Z,5.81
2022-09-21T04:03:48.202Z,5.82
2022-09-21T04:04:49.503Z,5.80
2022-09-21T04:05:50.853Z,5.81
2022-09-21T04:06:53.362Z,5.82
2022-09-21T04:07:55.579Z,5.81
2022-09-21T04:08:56.873Z,5.82
2022-09-21T04:09:58.252Z,5.84
2022-09-21T04:10:59.553Z,5.84
2022-09-21T04:12:01.002Z,5.83
2022-09-21T04:13:02.930Z,5.84
2022-09-21T04:14:04.311Z,5.86
2022-09-21T04:15:05.945Z,5.88
2022-09-21T04:16:07.344Z,5.90
2022-09-21T04:17:08.730Z,5.91
2022-09-21T04:18:10.112Z,5.93
2022-09-21T04:19:11.882Z,5.96
2022-09-21T04:20:13.303Z,5.96
2022-09-21T04:21:14.624Z,6.00
2022-09-21T04:22:15.946Z,5.99
2022-09-21T04:23:17.263Z,5.99
2022-09-21T04:24:18.665Z,5.97
2022-09-21T04:25:20.164Z,5.95
2022-09-21T04:26:32.461Z,5.92
2022-09-21T04:27:33.806Z,5.94
2022-09-21T04:28:35.220Z,5.94
2022-09-21T04:29:37.406Z,5.93
2022-09-21T04:30:38.965Z,5.92
2022-09-21T04:31:40.646Z,5.90
2022-09-21T04:32:42.009Z,5.90
2022-09-21T04:33:43.419Z,5.91
2022-09-21T04:34:44.802Z,5.91
2022-09-21T04:35:46.375Z,5.93
2022-09-21T04:36:47.854Z,5.93
2022-09-21T04:37:49.195Z,5.94
2022-09-21T04:38:51.074Z,5.93
2022-09-21T04:39:52.425Z,5.90
2022-09-21T04:40:54.723Z,5.94
2022-09-21T04:41:56.096Z,5.92
2022-09-21T04:42:57.413Z,5.87
2022-09-21T04:43:58.773Z,5.86
2022-09-21T04:45:00.103Z,5.84
2022-09-21T04:46:14.781Z,5.82
2022-09-21T04:47:16.119Z,5.82
2022-09-21T04:48:17.453Z,5.84
2022-09-21T04:49:19.107Z,5.84
2022-09-21T04:50:20.642Z,5.83
2022-09-21T04:51:22.123Z,5.84
2022-09-21T04:52:23.480Z,5.82
2022-09-21T04:53:24.820Z,5.83
2022-09-21T04:54:26.165Z,5.81
2022-09-21T04:55:27.473Z,5.81
2022-09-21T04:56:28.829Z,5.80
2022-09-21T04:57:30.164Z,5.78
2022-09-21T04:58:31.982Z,5.79
2022-09-21T04:59:33.341Z,5.76
2022-09-21T05:00:34.648Z,5.77
2022-09-21T05:01:36.036Z,5.75
2022-09-21T05:02:37.373Z,5.76
2022-09-21T05:03:38.794Z,5.76
2022-09-21T05:04:40.180Z,5.78
2022-09-21T05:05:45.923Z,5.79
2022-09-21T05:06:47.228Z,5.79
2022-09-21T05:07:48.530Z,5.83
2022-09-21T05:08:49.901Z,5.87
2022-09-21T05:09:51.256Z,5.90
2022-09-21T05:10:52.922Z,5.90
2022-09-21T05:11:54.237Z,5.90
2022-09-21T05:12:55.610Z,5.92
2022-09-21T05:13:56.933Z,5.93
2022-09-21T05:14:58.470Z,5.94
2022-09-21T05:15:59.798Z,5.94
2022-09-21T05:17:01.101Z,5.94
2022-09-21T05:18:02.439Z,5.93
2022-09-21T05:19:03.944Z,5.94
2022-09-21T05:20:05.514Z,5.95
2022-09-21T05:21:06.826Z,5.96
2022-09-21T05:22:08.175Z,5.95
2022-09-21T05:23:11.650Z,5.95
2022-09-21T05:24:16.205Z,5.95
2022-09-21T05:25:17.573Z,5.96
2022-09-21T05:26:19.336Z,5.95
2022-09-21T05:27:20.638Z,5.94
2022-09-21T05:28:22.432Z,5.96
2022-09-21T05:29:23.985Z,5.97
2022-09-21T05:30:25.425Z,6.00
2022-09-21T05:31:47.088Z,6.01
2022-09-21T05:32:54.549Z,6.03
2022-09-21T05:34:03.677Z,6.04
2022-09-21T05:35:05.017Z,6.05
2022-09-21T05:36:18.225Z,6.05
2022-09-21T05:37:22.397Z,6.07
2022-09-21T05:38:23.977Z,6.11
2022-09-21T05:39:25.599Z,6.14
2022-09-21T05:40:27.230Z,6.15
2022-09-21T05:41:28.706Z,6.16
2022-09-21T05:42:30.214Z,6.17
2022-09-21T05:43:31.750Z,6.21
2022-09-21T05:44:33.211Z,6.22
2022-09-21T05:45:34.766Z,6.24
2022-09-21T05:47:14.595Z,6.25
2022-09-21T05:48:15.961Z,6.27
2022-09-21T05:49:20.642Z,6.29
2022-09-21T05:50:47.872Z,6.31
2022-09-21T05:52:03.794Z,6.37
2022-09-21T05:53:20.295Z,6.41
2022-09-21T05:54:26.408Z,6.45
2022-09-21T05:55:46.345Z,6.48
2022-09-21T05:56:51.949Z,6.49
2022-09-21T05:57:55.892Z,6.50
2022-09-21T05:59:11.651Z,6.52
2022-09-21T06:00:18.516Z,6.51
2022-09-21T06:01:25.690Z,6.53
2022-09-21T06:03:05.661Z,6.58
2022-09-21T06:04:09.804Z,6.59
2022-09-21T06:05:12.073Z,6.61
2022-09-21T06:06:13.390Z,6.62
2022-09-21T06:07:14.839Z,6.63
2022-09-21T06:08:16.142Z,6.67
2022-09-21T06:09:17.453Z,6.68
2022-09-21T06:10:18.941Z,6.70
2022-09-21T06:11:20.551Z,6.70
2022-09-21T06:12:21.925Z,6.73
2022-09-21T06:13:23.252Z,6.77
2022-09-21T06:14:24.576Z,6.82
2022-09-21T06:15:25.947Z,6.85
2022-09-21T06:16:27.298Z,6.90
2022-09-21T06:17:28.616Z,6.92
2022-09-21T06:18:30.285Z,6.93
2022-09-21T06:19:31.654Z,6.95
2022-09-21T06:20:33.186Z,6.98
2022-09-21T06:21:34.528Z,6.94
2022-09-21T06:22:35.862Z,6.98
2022-09-21T06:23:37.183Z,6.98
2022-09-21T06:24:38.505Z,6.97
2022-09-21T06:25:39.861Z,6.98
2022-09-21T06:26:41.188Z,7.01
2022-09-21T06:27:42.493Z,7.04
2022-09-21T06:28:43.823Z,7.09
2022-09-21T06:29:45.147Z,7.17
2022-09-21T06:30:53.308Z,7.19
2022-09-21T06:31:54.630Z,7.17
2022-09-21T06:32:58.697Z,7.19
2022-09-21T06:34:00.109Z,7.19
2022-09-21T06:35:01.492Z,7.25
2022-09-21T06:36:03.229Z,7.27
2022-09-21T06:37:04.571Z,7.29
2022-09-21T06:38:07.326Z,7.30
2022-09-21T06:39:08.657Z,7.28
2022-09-21T06:40:10.060Z,7.27
2022-09-21T06:41:11.471Z,7.29
2022-09-21T06:42:12.791Z,7.35
2022-09-21T06:43:14.647Z,7.38
2022-09-21T06:44:15.985Z,7.41
2022-09-21T06:45:17.325Z,7.43
2022-09-21T06:46:18.688Z,7.45
2022-09-21T06:47:20.010Z,7.50
2022-09-21T06:48:21.354Z,7.57
2022-09-21T06:49:22.696Z,7.61
2022-09-21T06:50:24.042Z,7.64
2022-09-21T06:51:25.368Z,7.64
2022-09-21T06:52:26.670Z,7.75
2022-09-21T06:53:28.951Z,7.77
2022-09-21T06:54:30.353Z,7.85
2022-09-21T06:55:31.706Z,7.92
2022-09-21T06:56:33.051Z,7.95
2022-09-21T06:57:34.365Z,7.96
2022-09-21T06:58:36.618Z,7.98
2022-09-21T06:59:37.941Z,8.02
2022-09-21T07:00:39.243Z,8.09
2022-09-21T07:01:40.649Z,8.11
2022-09-21T07:02:45.112Z,8.13
2022-09-21T07:03:48.847Z,8.15
2022-09-21T07:04:50.140Z,8.20
2022-09-21T07:05:51.440Z,8.30
2022-09-21T07:06:52.820Z,8.33
2022-09-21T07:07:57.428Z,8.32
2022-09-21T07:10:20.949Z,8.32
2022-09-21T07:11:22.486Z,8.39
2022-09-21T07:12:23.866Z,8.40
2022-09-21T07:13:25.765Z,8.45
2022-09-21T07:14:27.083Z,8.54
2022-09-21T07:15:28.409Z,8.56
2022-09-21T07:16:30.003Z,8.57
2022-09-21T07:17:32.894Z,8.62
2022-09-21T07:18:42.703Z,8.65
2022-09-21T07:19:44.399Z,8.72
2022-09-21T07:20:45.794Z,8.76
2022-09-21T07:21:47.121Z,8.77
2022-09-21T07:22:48.530Z,8.84
2022-09-21T07:23:50.050Z,8.86
2022-09-21T07:24:51.393Z,8.87
2022-09-21T07:25:52.745Z,8.96
2022-09-21T07:26:54.240Z,8.98
2022-09-21T07:27:55.562Z,8.98
2022-09-21T07:28:56.946Z,8.97
2022-09-21T07:29:58.309Z,8.98
2022-09-21T07:31:05.445Z,8.98
2022-09-21T07:32:06.889Z,9.03
2022-09-21T07:33:08.597Z,9.05
2022-09-21T07:34:09.935Z,9.06
2022-09-21T07:35:11.255Z,9.07
2022-09-21T07:36:13.221Z,9.09
2022-09-21T07:37:14.717Z,9.12
2022-09-21T07:38:16.026Z,9.14
2022-09-21T07:39:17.357Z,9.11
2022-09-21T07:40:21.870Z,9.10
2022-09-21T07:41:26.272Z,9.14
2022-09-21T07:42:27.642Z,9.17
2022-09-21T07:43:28.964Z,9.19
2022-09-21T07:44:30.259Z,9.23
2022-09-21T07:45:31.648Z,9.26
2022-09-21T07:46:33.045Z,9.29
2022-09-21T07:47:34.386Z,9.33
2022-09-21T07:48:35.922Z,9.36
2022-09-21T07:49:37.270Z,9.40
2022-09-21T07:50:38.598Z,9.43
2022-09-21T07:51:39.910Z,9.47
2022-09-21T07:52:41.253Z,9.48
2022-09-21T07:53:43.508Z,9.50
2022-09-21T07:54:44.883Z,9.53
2022-09-21T07:55:46.418Z,9.55
2022-09-21T07:56:47.697Z,9.56
2022-09-21T07:57:49.793Z,9.59
2022-09-21T07:58:51.152Z,9.69
2022-09-21T07:59:52.453Z,9.71
2022-09-21T08:00:53.814Z,9.72
2022-09-21T08:01:55.158Z,9.76
2022-09-21T08:02:56.603Z,9.81
2022-09-21T08:03:58.369Z,9.86
2022-09-21T08:04:59.664Z,9.86
2022-09-21T08:06:00.998Z,9.87
2022-09-21T08:07:02.330Z,9.92
2022-09-21T08:08:03.692Z,9.94
2022-09-21T08:09:05.632Z,9.99
2022-09-21T08:10:07.300Z,10.00
2022-09-21T08:11:08.599Z,10.04
2022-09-21T08:12:09.989Z,10.05
2022-09-21T08:13:11.332Z,10.10
2022-09-21T08:14:12.809Z,10.13
2022-09-21T08:15:36.841Z,10.23
2022-09-21T08:16:37.765Z,10.28
2022-09-21T08:17:39.084Z,10.32
2022-09-21T08:18:41.064Z,10.33
2022-09-21T08:19:44.320Z,10.36
2022-09-21T08:20:52.898Z,10.39
2022-09-21T08:21:57.442Z,10.42
2022-09-21T08:22:58.992Z,10.44
2022-09-21T08:24:00.389Z,10.46
2022-09-21T08:25:01.909Z,10.48
2022-09-21T08:26:04.567Z,10.49
2022-09-21T08:27:05.885Z,10.59
2022-09-21T08:28:09.781Z,10.58
2022-09-21T08:29:11.556Z,10.59
2022-09-21T08:30:12.918Z,10.64
2022-09-21T08:31:15.096Z,10.70
2022-09-21T08:32:33.309Z,10.74
2022-09-21T08:33:37.769Z,10.78
2022-09-21T08:34:39.065Z,10.79
2022-09-21T08:35:40.381Z,10.80
2022-09-21T08:36:41.794Z,10.83
2022-09-21T08:37:43.119Z,10.86
2022-09-21T08:38:44.500Z,10.88
2022-09-21T08:39:45.810Z,10.91
2022-09-21T08:40:47.371Z,10.92
2022-09-21T08:41:55.065Z,10.97
2022-09-21T08:43:00.930Z,11.03
2022-09-21T08:44:10.747Z,11.03
2022-09-21T08:45:14.386Z,11.04
2022-09-21T08:46:18.669Z,11.05
2022-09-21T08:47:33.701Z,11.12
2022-09-21T08:48:38.816Z,11.21
2022-09-21T08:49:41.234Z,11.20
2022-09-21T08:50:46.328Z,11.19
2022-09-21T08:51:57.308Z,11.21
2022-09-21T08:53:02.306Z,11.22
2022-09-21T08:54:12.483Z,11.27
2022-09-21T08:55:17.867Z,11.25
2022-09-21T08:56:20.318Z,11.26
2022-09-21T08:57:22.860Z,11.30
2022-09-21T08:58:25.169Z,11.33
2022-09-21T08:59:26.591Z,11.36
2022-09-21T09:00:29.536Z,11.49
2022-09-21T09:01:30.964Z,11.66
2022-09-21T09:02:32.321Z,11.71
2022-09-21T09:03:48.689Z,11.73
2022-09-21T09:04:49.968Z,11.73
2022-09-21T09:05:51.348Z,11.75
2022-09-21T09:06:52.656Z,11.79
2022-09-21T09:08:12.966Z,11.85
2022-09-21T09:09:31.764Z,11.98
2022-09-21T09:10:41.400Z,12.13
2022-09-21T09:11:58.024Z,12.07
2022-09-21T09:13:14.747Z,12.03
2022-09-21T09:14:16.065Z,12.01
2022-09-21T09:15:32.647Z,12.01
2022-09-21T09:16:40.180Z,12.16
2022-09-21T09:18:00.220Z,12.17
2022-09-21T09:19:11.674Z,12.17
2022-09-21T09:20:26.761Z,12.19
2022-09-21T09:21:32.685Z,12.27
2022-09-21T09:22:40.205Z,12.31
2022-09-21T09:23:44.858Z,12.34
2022-09-21T09:24:51.131Z,12.35
2022-09-21T09:26:06.163Z,12.40
2022-09-21T09:27:12.189Z,12.43
2022-09-21T09:28:20.527Z,12.53
2022-09-21T09:29:26.285Z,12.47
2022-09-21T09:30:30.221Z,12.45
2022-09-21T09:31:33.204Z,12.51
2022-09-21T09:32:43.517Z,12.48
2022-09-21T09:33:47.944Z,12.55
2022-09-21T09:34:54.977Z,12.57
2022-09-21T09:36:04.353Z,12.60
2022-09-21T09:37:10.827Z,12.66
2022-09-21T09:38:21.241Z,12.67
2022-09-21T09:39:22.638Z,12.70
2022-09-21T09:40:31.867Z,12.70
2022-09-21T09:41:51.378Z,12.69
2022-09-21T09:43:05.413Z,12.65
2022-09-21T09:44:06.680Z,12.63
2022-09-21T09:45:25.897Z,12.72
2022-09-21T09:46:33.932Z,12.71
2022-09-21T09:47:38.088Z,12.75
2022-09-21T09:48:54.010Z,12.81
2022-09-21T09:50:03.070Z,12.91
2022-09-21T09:51:04.474Z,12.94
2022-09-21T09:52:07.960Z,13.02
2022-09-21T09:53:11.853Z,13.06
2022-09-21T09:54:14.701Z,13.09
2022-09-21T09:55:16.005Z,13.11
2022-09-21T09:56:18.222Z,13.13
2022-09-21T09:57:24.715Z,13.15
2022-09-21T09:58:44.947Z,13.12
2022-09-21T09:59:54.806Z,13.19
2022-09-21T10:00:57.614Z,13.22
2022-09-21T10:02:19.010Z,13.23
2022-09-21T10:03:21.789Z,13.28
2022-09-21T10:04:23.129Z,13.34
2022-09-21T10:05:30.645Z,13.41
2022-09-21T10:06:32.361Z,13.48
2022-09-21T10:07:37.933Z,13.43
2022-09-21T10:08:41.044Z,13.51
2022-09-21T10:09:42.386Z,13.59
2022-09-21T10:10:43.710Z,13.61
2022-09-21T10:11:45.157Z,13.64
2022-09-21T10:12:46.730Z,13.70
2022-09-21T10:13:49.047Z,13.73
2022-09-21T10:14:52.192Z,13.80
2022-09-21T10:16:01.316Z,13.86
2022-09-21T10:17:07.357Z,13.90
2022-09-21T10:18:16.699Z,13.97
2022-09-21T10:19:27.664Z,13.95
2022-09-21T10:20:29.122Z,13.97
2022-09-21T10:21:35.429Z,13.97
2022-09-21T10:22:36.822Z,13.98
2022-09-21T10:23:38.156Z,14.02
2022-09-21T10:24:45.909Z,14.08
2022-09-21T10:25:53.335Z,14.21
2022-09-21T10:26:55.614Z,14.31
2022-09-21T10:27:57.104Z,14.39
2022-09-21T10:29:02.685Z,14.45
2022-09-21T10:30:04.261Z,14.52
2022-09-21T10:31:09.155Z,14.70
2022-09-21T10:32:14.756Z,14.78
2022-09-21T10:33:18.765Z,14.88
2022-09-21T10:34:20.087Z,14.88
2022-09-21T10:35:21.476Z,14.72
2022-09-21T10:36:27.632Z,14.75
2022-09-21T10:37:36.125Z,14.77
2022-09-21T10:38:37.458Z,14.81
2022-09-21T10:39:45.755Z,14.95
2022-09-21T10:40:47.860Z,15.07
2022-09-21T10:42:12.267Z,15.07
2022-09-21T10:43:24.700Z,15.11
2022-09-21T10:44:42.630Z,15.11
2022-09-21T10:45:52.408Z,15.12
2022-09-21T10:46:54.273Z,15.24
2022-09-21T10:48:06.325Z,15.27
2022-09-21T10:49:15.350Z,15.36
2022-09-21T10:50:48.925Z,15.38
2022-09-21T10:51:51.500Z,15.35
2022-09-21T10:53:15.887Z,15.27
2022-09-21T10:54:20.438Z,15.24
2022-09-21T10:55:22.703Z,15.27
2022-09-21T10:56:24.545Z,15.19
2022-09-21T10:57:26.613Z,15.25
2022-09-21T10:58:28.494Z,15.23
2022-09-21T10:59:31.574Z,15.20
2022-09-21T11:00:34.387Z,15.17
2022-09-21T11:01:35.883Z,15.09
2022-09-21T11:02:37.715Z,15.04
2022-09-21T11:03:47.768Z,15.04
2022-09-21T11:04:51.293Z,15.10
2022-09-21T11:05:53.935Z,15.07
2022-09-21T11:07:04.467Z,15.00
2022-09-21T11:08:15.786Z,14.91
2022-09-21T11:09:24.178Z,14.86
2022-09-21T11:10:34.670Z,14.86
2022-09-21T11:11:55.028Z,14.89
2022-09-21T11:13:08.478Z,14.92
2022-09-21T11:14:28.555Z,14.92
2022-09-21T11:16:02.478Z,14.93
2022-09-21T11:17:15.690Z,15.02
2022-09-21T11:18:16.982Z,15.09
2022-09-21T11:19:24.828Z,15.20
2022-09-21T11:20:33.910Z,15.16
2022-09-21T11:21:46.910Z,15.12
2022-09-21T11:22:57.697Z,15.16
2022-09-21T11:24:11.428Z,15.14
2022-09-21T11:25:31.041Z,15.24
2022-09-21T11:26:40.232Z,15.31
2022-09-21T11:27:43.119Z,15.37
2022-09-21T11:28:58.312Z,15.35
2022-09-21T11:30:05.997Z,15.45
2022-09-21T11:31:26.240Z,15.57
2022-09-21T11:32:30.242Z,15.67
2022-09-21T11:33:58.014Z,15.63
2022-09-21T11:35:02.207Z,15.65
2022-09-21T11:36:26.745Z,15.66
2022-09-21T11:37:36.762Z,15.65
2022-09-21T11:38:54.225Z,15.60
2022-09-21T11:39:55.499Z,15.60
2022-09-21T11:40:56.801Z,15.58
2022-09-21T11:42:13.380Z,15.53
2022-09-21T11:43:22.759Z,15.41
2022-09-21T11:44:24.980Z,15.35
2022-09-21T11:45:32.308Z,15.37
2022-09-21T11:46:36.300Z,15.39
2022-09-21T11:47:53.355Z,15.37
2022-09-21T11:49:13.379Z,15.41
2022-09-21T11:50:30.326Z,15.45
2022-09-21T11:51:38.072Z,15.55
2022-09-21T11:52:45.235Z,15.71
2022-09-21T11:53:55.864Z,15.88
2022-09-21T11:55:10.575Z,15.87
2022-09-21T11:56:11.847Z,15.90
2022-09-21T11:57:16.178Z,15.89
2022-09-21T11:58:26.437Z,15.89
2022-09-21T11:59:35.198Z,15.87
2022-09-21T12:00:56.822Z,15.83
2022-09-21T12:02:01.198Z,15.89
2022-09-21T12:03:08.433Z,15.86
2022-09-21T12:04:09.744Z,15.88
2022-09-21T12:05:11.047Z,15.88
2022-09-21T12:06:16.829Z,15.94
2022-09-21T12:07:30.381Z,16.02
2022-09-21T12:08:50.089Z,16.19
2022-09-21T12:09:51.389Z,16.27
2022-09-21T12:10:58.661Z,16.35
2022-09-21T12:12:15.419Z,16.42
2022-09-21T12:13:19.744Z,16.52
2022-09-21T12:14:24.199Z,16.54
2022-09-21T12:15:35.450Z,16.52
2022-09-21T12:16:42.804Z,16.51
2022-09-21T12:18:01.337Z,16.56
2022-09-21T12:19:13.497Z,16.52
2022-09-21T12:20:23.417Z,16.47
2022-09-21T12:21:28.349Z,16.46
2022-09-21T12:22:32.285Z,16.55
2022-09-21T12:23:36.758Z,16.62
2022-09-21T12:24:47.217Z,16.70
2022-09-21T12:25:54.012Z,16.71
2022-09-21T12:26:57.165Z,16.70
2022-09-21T12:28:02.173Z,16.60
2022-09-21T12:29:07.498Z,16.58
2022-09-21T12:30:14.067Z,16.62
2022-09-21T12:31:21.656Z,16.63
2022-09-21T12:32:26.407Z,16.65
2022-09-21T12:33:35.325Z,16.72
2022-09-21T12:34:42.368Z,16.78
2022-09-21T12:35:53.906Z,16.84
2022-09-21T12:36:55.231Z,16.88
2022-09-21T12:38:11.653Z,16.91
2022-09-21T12:39:28.078Z,16.90
2022-09-21T12:40:58.558Z,16.91
2022-09-21T12:42:02.952Z,16.96
2022-09-21T12:43:23.146Z,16.97
2022-09-21T12:44:31.189Z,16.92
2022-09-21T12:45:35.599Z,16.94
2022-09-21T12:46:40.401Z,16.82
2022-09-21T12:48:00.750Z,16.72
2022-09-21T12:49:08.953Z,16.79
2022-09-21T12:50:19.248Z,16.79
2022-09-21T12:51:46.782Z,16.79
2022-09-21T12:52:49.585Z,16.81
2022-09-21T12:53:55.028Z,16.84
2022-09-21T12:55:16.982Z,16.83
2022-09-21T12:56:18.727Z,16.87
2022-09-21T12:57:45.528Z,16.94
2022-09-21T12:59:03.016Z,16.96
2022-09-21T13:00:08.690Z,17.02
2022-09-21T13:01:16.290Z,16.96
2022-09-21T13:02:20.854Z,17.01
2022-09-21T13:03:30.702Z,17.01
2022-09-21T13:04:50.096Z,17.06
2022-09-21T13:05:54.416Z,17.19
2022-09-21T13:07:16.006Z,17.32
2022-09-21T13:08:19.133Z,17.32
2022-09-21T13:09:20.701Z,17.32
2022-09-21T13:10:28.353Z,17.34
2022-09-21T13:11:31.667Z,17.37
2022-09-21T13:12:39.195Z,17.43
2022-09-21T13:13:52.525Z,17.37
2022-09-21T13:15:01.874Z,17.38
2022-09-21T13:16:05.203Z,17.41
2022-09-21T13:17:06.753Z,17.37
2022-09-21T13:18:19.468Z,17.29
2022-09-21T13:19:22.311Z,17.27
2022-09-21T13:20:23.697Z,17.19
2022-09-21T13:21:27.342Z,17.21
2022-09-21T13:22:32.704Z,17.25
2022-09-21T13:23:38.593Z,17.23
2022-09-21T13:24:41.229Z,17.31
2022-09-21T13:25:47.422Z,17.53
2022-09-21T13:26:53.784Z,17.65
2022-09-21T13:28:06.064Z,17.67
2022-09-21T13:29:19.342Z,17.63
2022-09-21T13:30:29.917Z,17.64
2022-09-21T13:31:52.727Z,17.69
2022-09-21T13:32:54.069Z,17.74
2022-09-21T13:34:07.361Z,17.78
2022-09-21T13:35:27.377Z,17.80
2022-09-21T13:36:30.235Z,17.81
2022-09-21T13:37:31.688Z,17.82
2022-09-21T13:38:45.081Z,17.85
2022-09-21T13:40:15.689Z,17.86
2022-09-21T13:41:17.203Z,17.89
2022-09-21T13:42:30.733Z,17.90
2022-09-21T13:43:55.563Z,17.97
2022-09-21T13:44:58.094Z,17.99
2022-09-21T13:45:59.541Z,17.95
2022-09-21T13:47:01.239Z,17.95
2022-09-21T13:48:12.928Z,17.96
2022-09-21T13:49:14.219Z,17.90
2022-09-21T13:50:18.638Z,17.90
2022-09-21T13:51:20.287Z,17.83
2022-09-21T13:52:35.630Z,17.78
2022-09-21T13:53:39.749Z,17.80
2022-09-21T13:54:47.044Z,17.86
2022-09-21T13:55:50.387Z,17.84
2022-09-21T13:57:00.048Z,17.80
2022-09-21T13:58:21.634Z,17.78
2022-09-21T13:59:24.448Z,17.80
2022-09-21T14:00:32.132Z,17.74
2022-09-21T14:01:46.737Z,17.71
2022-09-21T14:02:48.953Z,17.72
2022-09-21T14:03:58.170Z,17.60
2022-09-21T14:05:06.368Z,17.50
2022-09-21T14:06:13.517Z,17.38
2022-09-21T14:07:14.911Z,17.13
2022-09-21T14:08:16.219Z,17.05
2022-09-21T14:09:26.541Z,17.02
2022-09-21T14:10:29.405Z,16.97
2022-09-21T14:11:33.566Z,16.80
2022-09-21T14:12:39.386Z,16.70
2022-09-21T14:14:01.064Z,16.71
2022-09-21T14:15:28.633Z,16.76
2022-09-21T14:16:30.001Z,16.85
2022-09-21T14:17:38.370Z,16.91
2022-09-21T14:18:39.701Z,16.95
2022-09-21T14:19:43.853Z,16.98